Time;durP1;ratioP1;P1;durP2;ratioP2;P2;SDS_P1;SDS_P2;PMS_P1;PMS_P2;Temp;Humidity;BMP_temperature;BMP_pressure;BME280_temperature;BME280_humidity;BME280_pressure;Samples;Min_cycle;Max_cycle;Signal;HPM_P1;HPM_P2
2021/05/24 00:00:20;;;;;;;;;1.00;0.00;;;;;15.65;45.97;100252.16;5056832;28;45702;-83
2021/05/24 00:02:46;;;;;;;;;0.00;0.00;;;;;15.65;46.45;100248.69;5056715;28;45709;-83
2021/05/24 00:08:33;;;;;;;;;1.00;0.00;;;;;15.46;46.79;100239.03;5056490;28;45992;-83
2021/05/24 00:10:58;;;;;;;;;0.00;0.00;;;;;15.44;47.07;100231.25;5056642;28;45558;-83
2021/05/24 00:13:24;;;;;;;;;0.00;0.00;;;;;15.44;47.08;100238.34;5056719;28;45590;-83
2021/05/24 00:15:56;;;;;;;;;0.00;0.00;;;;;15.46;47.16;100254.88;5056796;28;45797;-83
2021/05/24 00:18:23;;;;;;;;;0.50;0.00;;;;;15.44;46.80;100233.91;5054935;28;46228;-83
2021/05/24 00:20:55;;;;;;;;;0.25;0.25;;;;;15.45;47.07;100227.63;5056448;28;45746;-82
2021/05/24 00:23:21;;;;;;;;;0.00;0.00;;;;;15.36;47.68;100217.16;5056586;28;45661;-83
2021/05/24 00:25:47;;;;;;;;;1.00;1.00;;;;;15.30;47.53;100210.66;5056625;28;46885;-84
2021/05/24 00:28:14;;;;;;;;;0.00;0.00;;;;;15.30;47.55;100223.84;5056275;28;46033;-82
2021/05/24 00:30:44;;;;;;;;;0.75;0.75;;;;;15.21;47.59;100206.28;5055051;28;45748;-84
2021/05/24 00:33:10;;;;;;;;;0.00;0.00;;;;;15.17;47.60;100204.91;5056507;28;45773;-85
2021/05/24 00:35:36;;;;;;;;;0.00;0.00;;;;;15.21;48.23;100211.56;5054427;28;47422;-82
2021/05/24 00:38:04;;;;;;;;;0.75;0.00;;;;;15.14;48.07;100197.28;5054762;28;47330;-84
2021/05/24 00:40:29;;;;;;;;;0.25;0.00;;;;;15.13;48.27;100185.91;5056245;28;45707;-84
2021/05/24 00:42:55;;;;;;;;;0.00;0.00;;;;;15.21;48.40;100190.44;5056373;28;45546;-84
2021/05/24 00:45:21;;;;;;;;;0.00;0.00;;;;;15.22;48.58;100191.28;5071479;28;47508;-85
2021/05/24 00:47:46;;;;;;;;;1.00;0.25;;;;;15.13;47.96;100175.34;5056620;28;45641;-84
2021/05/24 00:53:47;;;;;;;;;0.00;0.00;;;;;15.16;48.26;100189.22;5047583;28;45842;-82
2021/05/24 00:56:12;;;;;;;;;0.00;0.00;;;;;15.14;48.63;100176.19;5056887;28;45473;-82
2021/05/24 00:58:38;;;;;;;;;0.00;0.00;;;;;15.13;48.51;100180.63;5057134;28;46178;-83
2021/05/24 01:01:03;;;;;;;;;0.00;0.00;;;;;15.06;48.71;100166.34;5057713;28;45880;-82
2021/05/24 01:03:29;;;;;;;;;0.00;0.00;;;;;15.08;48.15;100161.78;5058155;28;45699;-83
2021/05/24 01:05:54;;;;;;;;;0.00;0.00;;;;;15.01;48.55;100146.66;5058501;28;45674;-85
2021/05/24 01:08:20;;;;;;;;;1.00;0.00;;;;;15.01;48.34;100149.31;5055654;28;47130;-85
2021/05/24 01:10:45;;;;;;;;;0.00;0.00;;;;;15.03;48.18;100156.09;5055929;28;45892;-83
2021/05/24 01:13:13;;;;;;;;;0.00;0.00;;;;;15.01;48.37;100146.66;5055825;28;45864;-84
2021/05/24 01:15:39;;;;;;;;;2.75;1.00;;;;;15.00;48.87;100135.31;5055627;28;46496;-83
2021/05/24 01:18:06;;;;;;;;;0.75;0.00;;;;;15.02;48.75;100133.34;5053768;28;46398;-83
2021/05/24 01:23:53;;;;;;;;;0.25;0.00;;;;;14.96;48.51;100127.81;5055321;28;45633;-83
2021/05/24 01:26:20;;;;;;;;;1.00;0.00;;;;;14.86;49.20;100122.59;5055529;28;45844;-83
2021/05/24 01:28:45;;;;;;;;;0.00;0.00;;;;;14.85;49.20;100117.47;5053533;28;48457;-83
2021/05/24 01:31:12;;;;;;;;;1.00;1.00;;;;;14.76;49.01;100113.94;5055575;28;45581;-82
2021/05/24 01:33:38;;;;;;;;;0.00;0.00;;;;;14.82;48.99;100120.44;5055285;28;45781;-82
2021/05/24 01:36:10;;;;;;;;;0.00;0.00;;;;;14.82;49.57;100105.44;5053733;28;48495;-85
2021/05/24 01:38:38;;;;;;;;;0.00;0.00;;;;;14.82;50.02;100109.88;5055369;28;46000;-85
2021/05/24 01:41:09;;;;;;;;;0.00;0.00;;;;;14.76;50.09;100110.47;5055386;28;45733;-84
2021/05/24 01:43:35;;;;;;;;;1.00;1.00;;;;;14.73;50.08;100106.34;5055410;28;45844;-85
2021/05/24 01:46:01;;;;;;;;;0.00;0.00;;;;;14.69;49.97;100095.22;5055328;28;45682;-84
2021/05/24 01:48:28;;;;;;;;;0.00;0.00;;;;;14.75;50.66;100109.63;5055235;28;46102;-84
2021/05/24 01:54:15;;;;;;;;;0.00;0.00;;;;;14.68;50.25;100112.03;5048280;28;45901;-85
2021/05/24 01:56:42;;;;;;;;;0.00;0.00;;;;;14.60;50.85;100090.84;5054886;28;45668;-84
2021/05/24 01:59:08;;;;;;;;;0.00;0.00;;;;;14.65;50.99;100099.16;5055048;28;46510;-84
2021/05/24 02:01:33;;;;;;;;;0.00;0.00;;;;;14.68;51.51;100100.66;5055216;28;45665;-84
2021/05/24 02:03:59;;;;;;;;;1.00;0.00;;;;;14.64;51.66;100101.91;5053740;28;46029;-84
2021/05/24 02:06:24;;;;;;;;;0.00;0.00;;;;;14.55;51.71;100087.81;5055075;28;45477;-84
2021/05/24 02:08:50;;;;;;;;;1.00;0.00;;;;;14.50;52.08;100082.16;5053919;28;46649;-84
2021/05/24 02:11:15;;;;;;;;;1.00;0.00;;;;;14.46;53.17;100093.16;5070360;28;45607;-84
2021/05/24 02:13:47;;;;;;;;;1.25;0.25;;;;;14.35;53.17;100075.69;5055004;28;45605;-84
2021/05/24 02:16:13;;;;;;;;;0.00;0.00;;;;;14.35;53.53;100093.31;5054897;28;45580;-84
2021/05/24 02:18:39;;;;;;;;;2.50;1.00;;;;;14.27;53.13;100079.06;5054662;28;45514;-85
2021/05/24 02:21:06;;;;;;;;;0.00;0.00;;;;;14.23;54.01;100080.31;5054672;28;45574;-84
2021/05/24 02:23:32;;;;;;;;;0.00;0.00;;;;;14.20;54.03;100077.97;5055061;28;45683;-84
2021/05/24 02:25:57;;;;;;;;;0.00;0.00;;;;;14.18;54.43;100081.72;5054914;28;45626;-84
2021/05/24 02:28:23;;;;;;;;;0.00;0.00;;;;;14.14;55.04;100077.75;5054605;28;45777;-84
2021/05/24 02:30:49;;;;;;;;;0.25;0.25;;;;;14.04;55.18;100069.00;5054893;28;45608;-84
2021/05/24 02:33:14;;;;;;;;;1.25;0.50;;;;;14.01;55.07;100067.50;5054734;28;45659;-84
2021/05/24 02:39:07;;;;;;;;;0.00;0.00;;;;;13.99;55.88;100058.91;5054193;28;46000;-83
2021/05/24 02:41:33;;;;;;;;;0.50;0.00;;;;;13.94;55.94;100053.25;5054618;28;45528;-84
2021/05/24 02:43:58;;;;;;;;;1.00;0.00;;;;;13.96;56.01;100053.94;5054358;28;45648;-84
2021/05/24 02:46:24;;;;;;;;;0.00;0.00;;;;;13.98;56.21;100045.91;5069689;28;47636;-83
2021/05/24 02:48:49;;;;;;;;;0.00;0.00;;;;;13.98;56.14;100041.44;5054000;28;46088;-83
2021/05/24 02:51:14;;;;;;;;;0.00;0.00;;;;;13.99;56.16;100044.91;5054254;28;45468;-83
2021/05/24 02:53:40;;;;;;;;;0.50;0.00;;;;;13.94;56.18;100034.81;5054068;28;45725;-82
2021/05/24 02:56:05;;;;;;;;;0.00;0.00;;;;;13.91;56.85;100042.19;5054353;28;45649;-84
2021/05/24 02:58:31;;;;;;;;;0.00;0.00;;;;;13.88;56.49;100038.03;5053090;28;46377;-83
2021/05/24 03:00:57;;;;;;;;;1.25;1.00;;;;;13.86;56.91;100047.88;5054753;28;45639;-83
2021/05/24 03:03:23;;;;;;;;;0.75;0.00;;;;;13.82;56.76;100044.69;5071294;28;45623;-83
2021/05/24 03:09:11;;;;;;;;;0.00;0.00;;;;;13.72;57.24;100033.38;5054386;28;45741;-83
2021/05/24 03:11:36;;;;;;;;;0.00;0.00;;;;;13.67;57.61;100034.78;5054649;28;45573;-84
2021/05/24 03:14:02;;;;;;;;;1.00;0.00;;;;;13.62;57.76;100029.09;5054521;28;45607;-84
2021/05/24 03:16:27;;;;;;;;;0.00;0.00;;;;;13.63;58.44;100041.28;5054102;28;45773;-86
2021/05/24 03:18:53;;;;;;;;;0.00;0.00;;;;;13.59;58.70;100034.66;5052278;28;46820;-85
2021/05/24 03:21:18;;;;;;;;;0.00;0.00;;;;;13.58;58.97;100033.00;5056489;28;45706;-83
2021/05/24 03:23:43;;;;;;;;;1.00;1.00;;;;;13.53;59.17;100032.59;5057479;28;45490;-84
2021/05/24 03:26:09;;;;;;;;;0.00;0.00;;;;;13.49;59.18;100032.06;5072821;28;47585;-83
2021/05/24 03:28:34;;;;;;;;;1.00;0.00;;;;;13.47;59.77;100022.63;5057344;28;45786;-84
2021/05/24 03:31:00;;;;;;;;;0.00;0.00;;;;;13.45;59.63;100023.59;5056121;28;45613;-84
2021/05/24 03:33:25;;;;;;;;;1.00;0.00;;;;;13.45;60.15;100025.41;5057458;28;45619;-84
2021/05/24 03:39:12;;;;;;;;;1.00;1.00;;;;;13.39;60.29;100023.31;5056851;28;45906;-83
2021/05/24 03:41:38;;;;;;;;;0.50;0.00;;;;;13.41;60.52;100038.03;5057055;28;45664;-83
2021/05/24 03:44:04;;;;;;;;;0.00;0.00;;;;;13.40;60.61;100038.16;5057325;28;45592;-83
2021/05/24 03:46:30;;;;;;;;;0.00;0.00;;;;;13.30;60.89;100030.28;5057305;28;45714;-85
2021/05/24 03:48:55;;;;;;;;;0.00;0.00;;;;;13.33;60.91;100034.44;5056954;28;46213;-84
2021/05/24 03:54:42;;;;;;;;;1.00;0.00;;;;;13.25;60.95;100037.75;5051937;28;45684;-83
2021/05/24 03:57:10;;;;;;;;;0.00;0.00;;;;;13.30;61.54;100053.97;5057098;28;45734;-83
2021/05/24 03:59:36;;;;;;;;;0.75;0.00;;;;;13.30;62.03;100053.97;5055502;28;47666;-84
2021/05/24 04:02:02;;;;;;;;;0.50;0.00;;;;;13.28;61.91;100049.81;5057181;28;45705;-83
2021/05/24 04:04:27;;;;;;;;;0.00;0.00;;;;;13.21;61.79;100031.13;5057522;28;45523;-83
2021/05/24 04:06:55;;;;;;;;;1.00;0.00;;;;;13.28;62.06;100052.44;5058605;28;46113;-83
2021/05/24 04:09:21;;;;;;;;;1.00;0.00;;;;;13.26;62.06;100049.94;5060177;28;45568;-83
2021/05/24 04:11:46;;;;;;;;;0.00;0.00;;;;;13.24;62.39;100051.03;5061139;28;45718;-82
2021/05/24 04:14:12;;;;;;;;;0.50;0.00;;;;;13.24;62.24;100053.69;5059725;28;45813;-84
2021/05/24 04:16:37;;;;;;;;;0.00;0.00;;;;;13.23;62.77;100046.75;5058841;28;45717;-84
2021/05/24 04:19:08;;;;;;;;;0.00;0.00;;;;;13.16;62.10;100043.88;5057858;28;45661;-85
2021/05/24 04:24:55;;;;;;;;;0.00;0.00;;;;;13.16;62.68;100062.28;5056619;28;45641;-85
2021/05/24 04:27:20;;;;;;;;;1.00;1.00;;;;;13.09;62.81;100049.78;5072110;27;47988;-84
2021/05/24 04:29:46;;;;;;;;;1.00;1.00;;;;;13.09;63.26;100055.03;5056337;28;45595;-86
2021/05/24 04:32:12;;;;;;;;;0.25;0.25;;;;;13.10;62.85;100049.66;5055514;28;45563;-84
2021/05/24 04:34:37;;;;;;;;;5.25;3.50;;;;;12.97;62.78;100052.53;5071842;28;45545;-83
2021/05/24 04:37:03;;;;;;;;;0.00;0.00;;;;;12.91;63.26;100050.47;5054870;28;47283;-84
2021/05/24 04:39:28;;;;;;;;;1.25;1.00;;;;;12.89;63.52;100068.19;5054431;28;47211;-83
2021/05/24 04:41:53;;;;;;;;;0.00;0.00;;;;;12.88;63.46;100049.91;5056034;28;45669;-84
2021/05/24 04:44:19;;;;;;;;;1.00;0.75;;;;;12.93;63.43;100071.38;5056118;28;45429;-83
2021/05/24 04:46:48;;;;;;;;;2.50;2.25;;;;;12.92;63.72;100078.44;5056050;28;45538;-83
2021/05/24 04:49:15;;;;;;;;;0.00;0.00;;;;;12.91;63.91;100076.75;5055815;28;46232;-83
2021/05/24 04:55:05;;;;;;;;;1.00;0.00;;;;;12.81;64.05;100072.44;5052365;28;45716;-84
2021/05/24 04:57:30;;;;;;;;;1.00;0.00;;;;;12.69;64.27;100070.91;5054401;28;47410;-84
2021/05/24 04:59:55;;;;;;;;;1.00;1.00;;;;;12.66;64.52;100069.41;5070951;28;47110;-84
2021/05/24 05:02:21;;;;;;;;;12.50;8.25;;;;;12.66;64.48;100072.03;5055721;28;45510;-84
2021/05/24 05:04:46;;;;;;;;;0.00;0.00;;;;;12.66;64.99;100069.41;5055848;28;45654;-84
2021/05/24 05:07:12;;;;;;;;;0.00;0.00;;;;;12.66;64.72;100072.03;5056243;28;45577;-86
2021/05/24 05:09:37;;;;;;;;;1.00;0.00;;;;;12.70;64.91;100075.19;5055698;28;45582;-84
2021/05/24 05:12:04;;;;;;;;;1.00;1.00;;;;;12.72;64.87;100071.50;5055899;28;45712;-85
2021/05/24 05:14:30;;;;;;;;;0.25;0.25;;;;;12.64;65.15;100058.19;5055232;28;45499;-85
2021/05/24 05:16:55;;;;;;;;;1.00;0.00;;;;;12.66;65.35;100050.16;5056886;28;45798;-86
2021/05/24 05:19:20;;;;;;;;;0.00;0.00;;;;;12.75;65.35;100057.22;5071569;28;46664;-84
2021/05/24 05:25:08;;;;;;;;;0.00;0.00;;;;;12.85;65.22;100058.91;5055364;28;45614;-84
2021/05/24 05:27:34;;;;;;;;;0.00;0.00;;;;;12.88;65.38;100045.50;5055591;28;46829;-85
2021/05/24 05:29:59;;;;;;;;;0.00;0.00;;;;;12.90;65.27;100051.44;5055285;28;46642;-84
2021/05/24 05:32:25;;;;;;;;;0.00;0.00;;;;;12.87;65.10;100043.81;5053742;28;45729;-85
2021/05/24 05:34:50;;;;;;;;;0.00;0.00;;;;;13.01;65.32;100061.81;5055304;28;45523;-84
2021/05/24 05:37:18;;;;;;;;;0.00;0.00;;;;;13.07;64.96;100062.22;5055273;28;46536;-84
2021/05/24 05:39:43;;;;;;;;;0.00;0.00;;;;;13.12;65.03;100078.47;5055281;28;45730;-84
2021/05/24 05:42:09;;;;;;;;;0.00;0.00;;;;;13.09;64.93;100066.41;5055230;28;45704;-83
2021/05/24 05:44:35;;;;;;;;;1.00;1.00;;;;;13.15;64.61;100070.31;5070518;28;45818;-84
2021/05/24 05:47:00;;;;;;;;;0.00;0.00;;;;;13.18;64.95;100078.75;5055278;28;46255;-84
2021/05/24 05:49:25;;;;;;;;;0.75;0.75;;;;;13.14;64.77;100072.09;5054989;28;45702;-84
2021/05/24 05:55:12;;;;;;;;;0.00;0.00;;;;;13.18;64.48;100065.59;5056113;28;45705;-83
2021/05/24 05:57:38;;;;;;;;;0.00;0.00;;;;;13.21;64.42;100069.75;5055266;28;46511;-84
2021/05/24 06:00:05;;;;;;;;;0.00;0.00;;;;;13.17;64.55;100058.66;5054668;28;45610;-84
2021/05/24 06:02:30;;;;;;;;;0.00;0.00;;;;;13.21;64.85;100061.88;5053781;28;45795;-84
2021/05/24 06:04:55;;;;;;;;;0.75;0.75;;;;;13.25;64.71;100071.97;5054829;28;45503;-85
2021/05/24 06:07:21;;;;;;;;;0.00;0.00;;;;;13.25;64.42;100071.97;5054831;28;45479;-84
2021/05/24 06:09:46;;;;;;;;;1.00;1.00;;;;;13.24;64.67;100082.63;5054586;28;45584;-84
2021/05/24 06:12:12;;;;;;;;;0.00;0.00;;;;;13.26;64.88;100071.00;5070087;27;45569;-84
2021/05/24 06:14:37;;;;;;;;;1.00;1.00;;;;;13.30;65.05;100079.44;5055068;28;45502;-86
2021/05/24 06:17:04;;;;;;;;;2.00;1.00;;;;;13.31;64.58;100084.56;5053061;28;47534;-85
2021/05/24 06:19:30;;;;;;;;;0.50;0.00;;;;;13.28;64.45;100071.66;5053156;28;48137;-86
2021/05/24 06:25:17;;;;;;;;;0.75;0.75;;;;;13.27;64.45;100061.31;5054536;28;45702;-84
2021/05/24 06:27:43;;;;;;;;;1.75;1.00;;;;;13.32;64.41;100073.06;5054586;28;46354;-85
2021/05/24 06:30:10;;;;;;;;;0.00;0.00;;;;;13.35;64.08;100069.31;5052993;28;47373;-85
2021/05/24 06:32:36;;;;;;;;;1.00;1.00;;;;;13.37;63.99;100072.66;5054873;28;45703;-85
2021/05/24 06:35:03;;;;;;;;;1.75;1.00;;;;;13.35;63.90;100070.16;5054170;28;45603;-85
2021/05/24 06:37:28;;;;;;;;;0.50;0.50;;;;;13.34;63.91;100067.66;5055348;28;45670;-82
2021/05/24 06:39:54;;;;;;;;;1.25;0.00;;;;;13.44;63.50;100086.91;5054550;28;46362;-85
2021/05/24 06:42:19;;;;;;;;;1.00;0.50;;;;;13.43;63.61;100099.25;5069833;28;45975;-84
2021/05/24 06:44:46;;;;;;;;;0.00;0.00;;;;;13.41;63.56;100092.44;5054479;28;45711;-84
2021/05/24 06:47:11;;;;;;;;;1.00;1.00;;;;;13.47;63.19;100094.53;5069905;28;47297;-84
2021/05/24 06:49:37;;;;;;;;;0.00;0.00;;;;;13.42;63.64;100081.78;5054199;28;45787;-84
2021/05/24 06:55:24;;;;;;;;;1.00;1.00;;;;;13.54;63.64;100102.69;5051376;28;45779;-86
2021/05/24 06:57:49;;;;;;;;;1.00;1.00;;;;;13.56;63.30;100096.31;5054798;28;45623;-86
2021/05/24 07:00:15;;;;;;;;;1.25;1.00;;;;;13.56;63.08;100093.66;5054564;28;46215;-83
2021/05/24 07:02:42;;;;;;;;;2.00;2.00;;;;;13.52;63.28;100079.13;5054885;28;45842;-86
2021/05/24 07:11:14;;;;;;;;;0.75;0.00;;;;;13.72;62.99;100111.50;5056911;28;45680;-86
2021/05/24 07:13:39;;;;;;;;;0.25;0.25;;;;;13.77;62.96;100101.38;5058183;28;45658;-85
2021/05/24 07:16:05;;;;;;;;;0.00;0.00;;;;;13.77;62.85;100106.66;5055953;28;45730;-86
2021/05/24 07:18:30;;;;;;;;;0.75;0.25;;;;;13.75;62.70;100108.63;5055442;28;45833;-84
2021/05/24 07:20:56;;;;;;;;;1.00;0.75;;;;;13.76;62.56;100105.00;5056885;28;46080;-86
2021/05/24 07:23:21;;;;;;;;;1.00;1.00;;;;;13.68;62.28;100104.88;5072124;28;45753;-85
2021/05/24 07:25:47;;;;;;;;;0.75;0.75;;;;;13.71;61.90;100125.69;5052925;28;45491;-85
2021/05/24 07:28:12;;;;;;;;;1.00;0.00;;;;;13.68;62.15;100120.66;5051980;28;46790;-85
2021/05/24 07:30:38;;;;;;;;;0.75;0.75;;;;;13.68;62.42;100110.97;5052246;28;47359;-84
2021/05/24 07:33:03;;;;;;;;;0.50;0.00;;;;;13.71;62.54;100130.94;5053968;28;45574;-85
2021/05/24 07:35:29;;;;;;;;;1.00;0.75;;;;;13.79;61.89;100131.06;5054182;28;45931;-85
2021/05/24 07:37:54;;;;;;;;;0.50;0.25;;;;;13.78;61.91;100119.69;5051953;28;46833;-85
2021/05/24 07:40:20;;;;;;;;;0.25;0.25;;;;;13.86;61.86;100126.88;5053542;28;45607;-85
2021/05/24 07:42:46;;;;;;;;;1.00;0.75;;;;;13.84;61.67;100128.81;5053727;28;45550;-85
2021/05/24 07:45:12;;;;;;;;;2.00;1.00;;;;;13.88;61.31;100125.75;5069043;28;45703;-84
2021/05/24 07:47:38;;;;;;;;;1.50;0.75;;;;;13.93;60.66;100133.22;5051961;28;47426;-84
2021/05/24 07:50:05;;;;;;;;;0.75;0.50;;;;;14.00;60.76;100138.75;5053579;28;45972;-84
2021/05/24 07:55:53;;;;;;;;;1.00;0.00;;;;;13.96;60.85;100119.78;5049090;28;45752;-84
2021/05/24 07:58:18;;;;;;;;;0.00;0.00;;;;;14.04;60.86;100146.22;5052012;28;47275;-84
2021/05/24 08:00:44;;;;;;;;;1.00;1.00;;;;;14.02;60.41;100142.09;5052013;28;48031;-84
2021/05/24 08:03:09;;;;;;;;;0.00;0.00;;;;;13.97;60.53;100136.44;5053400;28;45605;-85
2021/05/24 08:05:35;;;;;;;;;1.00;1.00;;;;;13.96;60.37;100142.66;5053598;28;45697;-85
2021/05/24 08:08:01;;;;;;;;;1.00;0.75;;;;;13.99;60.34;100152.91;5070881;28;47743;-84
2021/05/24 08:10:27;;;;;;;;;0.00;0.00;;;;;13.93;60.04;100138.50;5057015;28;46424;-85
2021/05/24 08:12:53;;;;;;;;;0.00;0.00;;;;;14.01;60.16;100146.53;5057475;28;45588;-85
2021/05/24 08:15:33;;;;;;;;;1.00;1.00;;;;;13.89;59.89;100134.50;5055478;28;45606;-85
2021/05/24 08:18:04;;;;;;;;;0.00;0.00;;;;;13.92;60.10;100134.22;5055279;28;46414;-86
2021/05/24 08:20:32;;;;;;;;;0.75;0.25;;;;;13.92;59.88;100146.56;5056712;27;46553;-87
2021/05/24 08:22:57;;;;;;;;;1.00;0.75;;;;;13.90;59.95;100146.69;5055223;28;45714;-86
2021/05/24 08:25:23;;;;;;;;;2.00;1.00;;;;;13.86;60.09;100132.16;5055887;28;45895;-87
2021/05/24 08:27:49;;;;;;;;;0.75;0.75;;;;;13.87;59.96;100139.88;5055884;28;48932;-86
2021/05/24 08:30:15;;;;;;;;;1.50;1.00;;;;;13.79;60.37;100126.63;5055440;28;47303;-87
2021/05/24 08:32:41;;;;;;;;;3.00;1.00;;;;;13.78;60.30;100130.22;5056950;28;45654;-86
2021/05/24 08:35:10;;;;;;;;;1.00;1.00;;;;;13.93;60.13;100143.75;5056850;28;45943;-86
2021/05/24 08:41:05;;;;;;;;;1.00;1.00;;;;;14.09;60.22;100144.00;5056620;28;45771;-86
2021/05/24 08:43:34;;;;;;;;;1.75;1.25;;;;;14.15;60.50;100147.88;5055459;28;45688;-87
2021/05/24 08:46:00;;;;;;;;;1.00;1.00;;;;;14.18;59.78;100147.59;5055746;28;45556;-86
2021/05/24 08:48:26;;;;;;;;;1.00;1.00;;;;;14.22;59.54;100139.25;5054788;28;47919;-87
2021/05/24 08:50:51;;;;;;;;;0.50;0.50;;;;;14.21;59.00;100129.69;5072138;28;47712;-85
2021/05/24 08:53:17;;;;;;;;;1.75;1.75;;;;;14.34;59.50;100132.00;5055880;28;46081;-86
2021/05/24 08:55:42;;;;;;;;;1.75;1.25;;;;;14.47;59.61;100137.78;5056832;28;45642;-88
2021/05/24 08:58:09;;;;;;;;;0.50;0.00;;;;;14.52;58.92;100121.56;5056780;28;45573;-85
2021/05/24 09:00:35;;;;;;;;;2.00;1.00;;;;;14.74;59.30;100134.34;5056892;28;45903;-85
2021/05/24 09:03:01;;;;;;;;;1.00;0.75;;;;;14.90;59.27;100123.97;5056812;28;45694;-86
2021/05/24 09:05:29;;;;;;;;;2.75;2.75;;;;;15.09;59.21;100129.13;5056520;28;45769;-86
2021/05/24 09:11:32;;;;;;;;;3.00;1.75;;;;;15.42;57.96;100126.81;5056395;28;45965;-79
2021/05/24 09:13:57;;;;;;;;;0.50;0.50;;;;;15.50;57.14;100119.75;5056903;28;45697;-79
2021/05/24 09:16:27;;;;;;;;;1.50;1.25;;;;;15.52;56.53;100119.66;5056837;28;45685;-79
2021/05/24 09:19:16;;;;;;;;;2.50;0.75;;;;;15.61;56.31;100117.91;5056944;28;45549;-79
2021/05/24 09:21:59;;;;;;;;;1.00;0.00;;;;;15.63;55.87;100110.66;5062830;28;45673;-87
2021/05/24 09:24:28;;;;;;;;;1.00;1.00;;;;;15.59;55.35;100104.03;5060904;28;45764;-84
2021/05/24 09:26:57;;;;;;;;;2.00;1.00;;;;;15.54;55.57;100099.22;5061285;28;45519;-87
2021/05/24 09:29:23;;;;;;;;;2.00;2.00;;;;;15.46;55.43;100105.22;5061662;28;46389;-86
2021/05/24 09:32:10;;;;;;;;;1.00;1.00;;;;;15.43;55.20;100105.53;5058722;28;46000;-85
2021/05/24 09:34:36;;;;;;;;;1.25;1.25;;;;;15.25;55.02;100096.78;5057731;28;45515;-89
2021/05/24 09:37:02;;;;;;;;;1.00;1.00;;;;;15.30;55.41;100096.31;5059014;28;45529;-85
2021/05/24 09:39:33;;;;;;;;;1.25;1.00;;;;;15.24;54.67;100089.84;5056606;27;45682;-84
2021/05/24 09:42:07;;;;;;;;;1.25;1.00;;;;;15.26;55.15;100089.69;5055806;28;45924;-79
2021/05/24 09:44:33;;;;;;;;;1.25;1.25;;;;;15.32;55.21;100081.19;5055875;28;45560;-81
2021/05/24 09:47:01;;;;;;;;;1.50;0.75;;;;;15.36;55.04;100077.25;5056772;28;45736;-82
2021/05/24 09:49:29;;;;;;;;;2.00;1.75;;;;;15.56;54.61;100084.03;5056674;28;45636;-88
2021/05/24 09:51:57;;;;;;;;;1.00;1.00;;;;;15.68;54.23;100093.38;5057582;28;46029;-79
2021/05/24 09:54:29;;;;;;;;;1.00;1.00;;;;;15.76;53.89;100080.19;5055914;28;45691;-78
2021/05/24 09:56:54;;;;;;;;;1.00;1.00;;;;;15.73;53.94;100072.59;5056397;27;45811;-83
2021/05/24 09:59:21;;;;;;;;;1.75;1.25;;;;;15.92;53.99;100084.78;5057132;28;45809;-87
2021/05/24 10:01:54;;;;;;;;;1.50;1.50;;;;;15.88;53.49;100068.41;5057304;28;46233;-79
2021/05/24 10:04:25;;;;;;;;;1.75;1.00;;;;;16.04;53.57;100075.59;5059877;28;45784;-79
2021/05/24 10:06:51;;;;;;;;;2.75;2.00;;;;;16.09;53.65;100072.47;5063173;28;45442;-84
2021/05/24 10:09:18;;;;;;;;;1.50;1.00;;;;;16.15;53.84;100077.13;5059326;28;46298;-81
2021/05/24 10:11:47;;;;;;;;;3.50;3.00;;;;;16.20;53.89;100075.66;5061447;28;46094;-85
2021/05/24 10:14:17;;;;;;;;;1.00;1.00;;;;;16.29;53.08;100077.38;5060199;28;45238;-84
2021/05/24 10:16:49;;;;;;;;;1.25;1.00;;;;;16.29;53.28;100063.34;5057617;28;45710;-88
2021/05/24 10:19:17;;;;;;;;;0.25;0.25;;;;;16.27;53.15;100073.22;5056464;28;46287;-86
2021/05/24 10:21:44;;;;;;;;;1.75;1.25;;;;;16.24;52.87;100073.56;5056021;28;45725;-82
2021/05/24 10:24:10;;;;;;;;;1.50;1.50;;;;;16.12;53.12;100070.34;5055070;28;45782;-82
2021/05/24 10:26:38;;;;;;;;;1.25;1.25;;;;;16.11;53.22;100071.34;5055914;28;45531;-83
2021/05/24 10:29:04;;;;;;;;;3.00;2.25;;;;;16.04;53.65;100088.81;5057257;28;45493;-79
2021/05/24 10:31:32;;;;;;;;;1.00;1.00;;;;;15.98;53.76;100072.78;5056383;28;45802;-82
2021/05/24 10:34:22;;;;;;;;;1.00;1.00;;;;;16.05;54.36;100064.03;5053993;28;45605;-81
2021/05/24 10:37:08;;;;;;;;;1.25;1.00;;;;;16.15;54.17;100062.09;5053078;28;45801;-81
2021/05/24 10:40:02;;;;;;;;;1.25;1.00;;;;;16.33;54.57;100059.38;5054793;28;46451;-78
2021/05/24 10:43:06;;;;;;;;;2.00;1.00;;;;;16.46;53.85;100051.84;5054536;28;45649;-82
2021/05/24 10:45:32;;;;;;;;;2.00;1.50;;;;;16.46;52.95;100057.13;5069747;27;45846;-80
2021/05/24 10:48:00;;;;;;;;;4.25;1.50;;;;;16.35;53.03;100045.03;5054009;28;45553;-77
2021/05/24 10:50:31;;;;;;;;;2.75;1.75;;;;;16.23;53.48;100062.16;5053926;28;46587;-77
2021/05/24 10:53:03;;;;;;;;;1.75;1.75;;;;;16.12;54.45;100066.88;5054151;28;45857;-80
2021/05/24 10:55:28;;;;;;;;;3.25;1.25;;;;;16.02;55.63;100058.25;5053971;28;45697;-79
2021/05/24 10:58:02;;;;;;;;;2.00;2.00;;;;;15.86;55.92;100082.75;5053859;28;45762;-79
2021/05/24 11:00:47;;;;;;;;;1.00;1.00;;;;;15.67;55.63;100070.56;5053132;28;46218;-80
2021/05/24 11:03:12;;;;;;;;;2.00;1.00;;;;;15.65;57.32;100043.50;5055819;28;46074;-80
2021/05/24 11:05:38;;;;;;;;;4.75;3.50;;;;;15.78;58.03;100051.00;5058705;28;45625;-80
2021/05/24 11:08:07;;;;;;;;;2.75;1.00;;;;;15.86;57.88;100046.63;5054060;28;45871;-81
2021/05/24 11:10:46;;;;;;;;;1.00;1.00;;;;;15.94;57.98;100048.44;5055697;28;45553;-81
2021/05/24 11:13:12;;;;;;;;;3.00;2.00;;;;;16.08;57.77;100047.88;5053649;28;46019;-79
2021/05/24 11:15:39;;;;;;;;;1.00;1.00;;;;;16.12;57.69;100035.16;5069263;27;45658;-83
2021/05/24 11:18:05;;;;;;;;;1.00;1.00;;;;;16.11;56.17;100022.94;5052588;28;45626;-79
2021/05/24 11:20:50;;;;;;;;;14.25;13.00;;;;;16.03;57.18;100020.28;5068988;28;46479;-79
2021/05/24 11:23:36;;;;;;;;;3.25;2.00;;;;;15.98;55.65;100017.28;5053134;28;46203;-80
2021/05/24 11:29:16;;;;;;;;;2.00;1.50;;;;;15.94;55.68;100019.38;5053837;28;45692;-81
2021/05/24 11:31:46;;;;;;;;;1.75;1.00;;;;;15.99;54.65;100025.03;5053487;28;46653;-80
2021/05/24 11:34:26;;;;;;;;;0.75;0.75;;;;;15.97;54.39;100011.16;5053646;28;45980;-80
2021/05/24 11:40:15;;;;;;;;;0.00;0.00;;;;;16.19;52.46;100037.03;5054360;28;45671;-82
2021/05/24 11:43:20;;;;;;;;;1.00;1.00;;;;;16.17;50.96;100017.03;5057988;28;45606;-81
2021/05/24 11:46:06;;;;;;;;;0.75;0.00;;;;;16.33;51.07;100023.19;4976755;28;46416;-84
2021/05/24 11:58:22;;;;;;;;;1.00;1.00;;;;;16.47;49.20;100016.44;4973209;28;45917;-83
2021/05/24 12:00:49;;;;;;;;;1.25;1.00;;;;;16.50;49.50;100002.09;4973752;28;45616;-78
2021/05/24 12:03:14;;;;;;;;;1.00;1.00;;;;;16.56;48.47;99998.81;4974005;28;45784;-77
2021/05/24 12:05:40;;;;;;;;;0.75;0.00;;;;;16.59;48.15;99985.28;4974136;28;45773;-81
2021/05/24 12:11:28;;;;;;;;;1.00;1.00;;;;;16.91;47.54;99987.94;4973880;28;45845;-79
2021/05/24 12:14:03;;;;;;;;;2.75;1.75;;;;;17.01;46.60;99991.25;4973877;28;45661;-76
2021/05/24 12:16:31;;;;;;;;;1.00;0.75;;;;;17.11;46.26;99994.56;4974136;28;46665;-78
2021/05/24 12:18:58;;;;;;;;;1.25;1.00;;;;;17.22;45.24;99997.91;4973746;28;46174;-78
2021/05/24 12:21:37;;;;;;;;;1.00;0.75;;;;;17.24;44.37;100002.00;4974590;28;45754;-78
2021/05/24 12:27:28;;;;;;;;;2.00;0.00;;;;;17.35;44.68;100000.84;5059866;28;45645;-82
2021/05/24 12:30:15;;;;;;;;;1.75;1.00;;;;;17.38;43.91;100001.31;5061759;28;46072;-85
2021/05/24 12:33:07;;;;;;;;;1.50;0.75;;;;;17.36;44.79;100000.69;5056451;28;45618;-81
2021/05/24 12:35:38;;;;;;;;;1.00;1.00;;;;;17.17;44.67;99979.84;5057289;28;45688;-81
2021/05/24 12:40:56;;;;;;;;;2.00;1.00;;;;;16.75;44.85;99986.13;5054899;28;46022;-81
2021/05/24 12:43:23;;;;;;;;;4.50;1.00;;;;;16.51;47.82;100024.91;5055812;28;45573;-81
2021/05/24 12:46:09;;;;;;;;;1.00;0.00;;;;;15.72;100.00;100091.25;5061866;28;45502;-85
2021/05/24 12:48:40;;;;;;;;;1.00;0.00;;;;;14.42;100.00;100029.34;5057485;28;45815;-79
2021/05/24 12:51:18;;;;;;;;;2.00;1.00;;;;;14.21;100.00;100057.72;5054688;28;47048;-81
2021/05/24 12:54:01;;;;;;;;;0.25;0.25;;;;;14.21;100.00;100073.53;5053486;28;45846;-79
2021/05/24 12:56:46;;;;;;;;;1.25;0.00;;;;;14.38;100.00;100070.16;5054921;28;45536;-78